Time;durP1;ratioP1;P1;durP2;ratioP2;P2;SDS_P1;SDS_P2;PMS_P1;PMS_P2;Temp;Humidity;BMP_temperature;BMP_pressure;BME280_temperature;BME280_humidity;BME280_pressure;Samples;Min_cycle;Max_cycle;Signal;HPM_P1;HPM_P2
2021/04/24 00:00:31;;;;;;;17.15;8.63;;;7.00;74.60;;;;;;5075156;28;20630;-71
2021/04/24 00:02:57;;;;;;;17.67;10.50;;;7.00;75.30;;;;;;5073441;28;20365;-71
2021/04/24 00:05:30;;;;;;;23.00;10.00;;;7.00;74.90;;;;;;5074764;28;20091;-72
2021/04/24 00:08:02;;;;;;;17.75;9.45;;;7.00;74.80;;;;;;5074226;28;20510;-71
2021/04/24 00:10:30;;;;;;;20.80;9.57;;;7.00;74.80;;;;;;5073558;28;20445;-71
2021/04/24 00:12:55;;;;;;;26.67;10.60;;;6.90;74.80;;;;;;5073139;28;20059;-71
2021/04/24 00:15:21;;;;;;;25.52;10.23;;;6.90;75.00;;;;;;5074521;28;20020;-71
2021/04/24 00:17:47;;;;;;;17.70;9.45;;;6.80;75.20;;;;;;5073356;28;20403;-71
2021/04/24 00:20:16;;;;;;;19.98;9.20;;;6.80;75.10;;;;;;5073988;28;20029;-70
2021/04/24 00:22:42;;;;;;;22.25;10.07;;;6.80;75.20;;;;;;5074555;28;20027;-71
2021/04/24 00:25:09;;;;;;;17.88;8.85;;;6.80;75.50;;;;;;5074180;28;20017;-71
2021/04/24 00:27:35;;;;;;;22.25;9.73;;;6.70;75.40;;;;;;5074123;28;20027;-72
2021/04/24 00:30:00;;;;;;;16.00;9.32;;;6.70;75.50;;;;;;5072898;28;20427;-72
2021/04/24 00:32:26;;;;;;;17.38;8.73;;;6.70;75.70;;;;;;5074425;28;20027;-72
2021/04/24 00:34:52;;;;;;;19.98;8.40;;;6.70;75.70;;;;;;5074328;28;20016;-71
2021/04/24 00:37:18;;;;;;;19.25;9.68;;;6.60;75.70;;;;;;5072491;28;20024;-72
2021/04/24 00:39:44;;;;;;;16.13;8.95;;;6.60;75.90;;;;;;5073933;28;20074;-71
2021/04/24 00:42:10;;;;;;;22.52;9.75;;;6.60;76.00;;;;;;5074174;28;20467;-72
2021/04/24 00:44:35;;;;;;;16.73;8.90;;;6.60;76.00;;;;;;5072561;28;20474;-72
2021/04/24 00:47:01;;;;;;;35.90;11.23;;;6.60;76.30;;;;;;5073777;28;20096;-72
2021/04/24 00:49:27;;;;;;;20.38;9.02;;;6.60;76.50;;;;;;5072758;28;20020;-71
2021/04/24 00:51:53;;;;;;;23.27;9.25;;;6.60;76.50;;;;;;5073567;28;20345;-72
2021/04/24 00:54:18;;;;;;;19.25;9.63;;;6.60;76.60;;;;;;5072339;28;20035;-72
2021/04/24 00:56:44;;;;;;;16.55;6.97;;;6.60;76.50;;;;;;5072624;28;20070;-72
2021/04/24 00:59:11;;;;;;;20.58;9.48;;;6.60;76.60;;;;;;5072288;28;20452;-71
2021/04/24 01:01:36;;;;;;;16.67;9.00;;;6.50;76.70;;;;;;5072514;28;20021;-71
2021/04/24 01:04:02;;;;;;;19.50;9.30;;;6.50;76.80;;;;;;5072140;28;20117;-71
2021/04/24 01:06:28;;;;;;;27.50;11.15;;;6.50;76.90;;;;;;5073686;28;20021;-71
2021/04/24 01:08:53;;;;;;;21.25;10.48;;;6.50;77.00;;;;;;5072094;28;20044;-72
2021/04/24 01:11:19;;;;;;;18.40;9.38;;;6.50;77.00;;;;;;5072028;28;20036;-71
2021/04/24 01:13:45;;;;;;;22.50;9.80;;;6.50;77.10;;;;;;5073540;28;20021;-71
2021/04/24 01:16:10;;;;;;;19.58;8.60;;;6.50;77.00;;;;;;5073484;28;20074;-71
2021/04/24 01:18:37;;;;;;;18.73;9.13;;;6.40;77.30;;;;;;5073454;28;20049;-71
2021/04/24 01:21:05;;;;;;;18.65;8.02;;;6.40;77.20;;;;;;5072682;28;20021;-71
2021/04/24 01:23:34;;;;;;;19.70;10.10;;;6.40;77.30;;;;;;5071710;28;20012;-72
2021/04/24 01:26:01;;;;;;;19.25;9.48;;;6.40;77.50;;;;;;5071910;28;20020;-72
2021/04/24 01:28:30;;;;;;;19.40;9.27;;;6.40;77.60;;;;;;5073032;28;20017;-71
2021/04/24 01:30:56;;;;;;;17.38;9.43;;;6.40;77.70;;;;;;5073062;28;20020;-71
2021/04/24 01:33:23;;;;;;;18.83;11.02;;;6.30;78.30;;;;;;5071381;28;20483;-71
2021/04/24 01:35:48;;;;;;;21.60;9.43;;;6.30;77.70;;;;;;5072779;28;20103;-72
2021/04/24 01:38:15;;;;;;;21.95;9.45;;;6.30;77.70;;;;;;5072547;28;20100;-72
2021/04/24 01:40:41;;;;;;;22.42;10.43;;;6.30;77.90;;;;;;5072959;28;20021;-72
2021/04/24 01:43:07;;;;;;;23.02;10.18;;;6.30;78.00;;;;;;5071382;28;20023;-72
2021/04/24 01:45:33;;;;;;;21.00;10.50;;;6.20;78.00;;;;;;5072915;28;20020;-72
2021/04/24 01:47:59;;;;;;;20.35;9.77;;;6.20;78.20;;;;;;5071614;28;20341;-72
2021/04/24 01:50:40;;;;;;;17.80;9.57;;;6.20;78.30;;;;;;5072587;28;20032;-72
2021/04/24 01:53:11;;;;;;;25.75;10.35;;;6.20;78.30;;;;;;5072592;28;20020;-71
2021/04/24 01:55:37;;;;;;;;;;;6.20;78.40;;;;;;5071954;28;20021;-71
2021/04/24 01:58:09;;;;;;;20.10;9.15;;;6.10;78.60;;;;;;5072766;28;20348;-71
2021/04/24 02:00:51;;;;;;;18.40;9.32;;;6.10;78.50;;;;;;5072468;28;20031;-71
2021/04/24 02:03:17;;;;;;;20.90;9.45;;;6.10;78.80;;;;;;5072304;28;20046;-71
2021/04/24 02:05:44;;;;;;;20.20;10.18;;;6.10;78.90;;;;;;5072989;28;20028;-72
2021/04/24 02:08:13;;;;;;;22.40;9.60;;;6.10;79.10;;;;;;5072290;28;20370;-71
2021/04/24 02:10:42;;;;;;;23.45;10.10;;;6.00;79.10;;;;;;5072555;28;20376;-70
2021/04/24 02:13:13;;;;;;;18.30;9.35;;;6.10;79.30;;;;;;5072025;28;20024;-71
2021/04/24 02:15:39;;;;;;;21.00;9.48;;;6.00;79.20;;;;;;5071232;28;20020;-71
2021/04/24 02:18:05;;;;;;;26.33;11.07;;;6.00;79.40;;;;;;5072001;28;20402;-72
2021/04/24 02:20:32;;;;;;;22.35;10.13;;;6.00;79.30;;;;;;5071143;28;20115;-72
2021/04/24 02:22:58;;;;;;;24.17;10.73;;;6.00;79.50;;;;;;5072171;28;20480;-71
2021/04/24 02:25:24;;;;;;;20.63;9.63;;;6.00;79.50;;;;;;5070790;28;20024;-72
2021/04/24 02:27:49;;;;;;;22.10;10.27;;;6.00;79.70;;;;;;5072479;28;20260;-71
2021/04/24 02:30:17;;;;;;;24.40;10.15;;;6.00;79.70;;;;;;5072149;28;20029;-71
2021/04/24 02:32:44;;;;;;;20.50;10.10;;;6.00;79.90;;;;;;5071948;28;20048;-71
2021/04/24 02:35:13;;;;;;;21.95;10.25;;;6.00;79.90;;;;;;5071515;28;20491;-72
2021/04/24 02:37:39;;;;;;;21.20;9.93;;;6.00;80.00;;;;;;5071923;28;20028;-70
2021/04/24 02:40:07;;;;;;;24.63;10.30;;;6.00;80.10;;;;;;5071842;28;20031;-71
2021/04/24 02:42:33;;;;;;;20.50;9.38;;;5.90;80.10;;;;;;5071878;28;20081;-71
2021/04/24 02:45:05;;;;;;;16.40;8.90;;;6.00;80.40;;;;;;5072197;28;20024;-72
2021/04/24 02:47:32;;;;;;;21.10;10.52;;;6.00;80.40;;;;;;5072406;28;20017;-72
2021/04/24 02:49:57;;;;;;;19.02;9.00;;;6.00;80.20;;;;;;5072195;28;20020;-71
2021/04/24 02:52:23;;;;;;;17.75;9.40;;;6.00;80.10;;;;;;5087431;28;20024;-70
2021/04/24 02:54:48;;;;;;;21.05;9.88;;;5.90;80.20;;;;;;5071827;28;20526;-71
2021/04/24 02:57:14;;;;;;;24.10;11.60;;;6.00;80.50;;;;;;5070534;28;20017;-71
2021/04/24 02:59:39;;;;;;;17.15;10.25;;;6.00;80.40;;;;;;5070498;28;20021;-71
2021/04/24 03:02:05;;;;;;;19.23;9.77;;;5.90;80.50;;;;;;5071854;28;20147;-71
2021/04/24 03:04:30;;;;;;;22.10;10.25;;;6.00;80.60;;;;;;5070071;28;20448;-71
2021/04/24 03:06:56;;;;;;;22.10;11.18;;;5.90;80.50;;;;;;5071598;28;20020;-71
2021/04/24 03:09:22;;;;;;;21.90;8.82;;;5.80;80.60;;;;;;5069952;28;20036;-71
2021/04/24 03:11:48;;;;;;;23.58;11.25;;;5.90;80.90;;;;;;5071716;28;20022;-71
2021/04/24 03:14:14;;;;;;;23.67;10.48;;;5.90;81.00;;;;;;5071729;28;20062;-72
2021/04/24 03:16:40;;;;;;;21.30;10.15;;;5.90;81.20;;;;;;5070592;28;20017;-71
2021/04/24 03:19:06;;;;;;;23.13;9.98;;;5.90;81.10;;;;;;5071936;28;20013;-71
2021/04/24 03:21:33;;;;;;;24.30;9.90;;;5.90;81.20;;;;;;5070319;28;20028;-70
2021/04/24 03:23:58;;;;;;;16.95;9.20;;;5.90;81.40;;;;;;5071797;28;20044;-71
2021/04/24 03:26:24;;;;;;;22.52;10.15;;;5.90;81.50;;;;;;5071625;28;20055;-71
2021/04/24 03:28:51;;;;;;;20.42;10.30;;;5.90;81.50;;;;;;5070577;28;20020;-71
2021/04/24 03:31:17;;;;;;;15.85;8.27;;;5.90;81.50;;;;;;5071376;28;20538;-71
2021/04/24 03:33:43;;;;;;;19.05;9.35;;;5.90;81.60;;;;;;5070413;28;20063;-71
2021/04/24 03:36:09;;;;;;;23.98;10.68;;;5.90;81.40;;;;;;5070179;28;20097;-70
2021/04/24 03:38:35;;;;;;;21.05;9.57;;;5.90;81.40;;;;;;5070514;28;20009;-71
2021/04/24 03:41:03;;;;;;;26.65;10.02;;;5.90;81.50;;;;;;5071370;28;20510;-70
2021/04/24 03:43:29;;;;;;;16.92;9.23;;;5.90;81.50;;;;;;5071175;28;20052;-70
2021/04/24 03:45:54;;;;;;;21.45;9.15;;;5.90;81.70;;;;;;5071239;28;20016;-71
2021/04/24 03:48:20;;;;;;;23.63;10.40;;;5.80;81.60;;;;;;5073250;28;20028;-71
2021/04/24 03:50:46;;;;;;;15.82;8.88;;;5.80;81.70;;;;;;5074514;28;20035;-71
2021/04/24 03:53:11;;;;;;;21.00;9.60;;;5.80;81.80;;;;;;5074497;28;20021;-71
2021/04/24 03:55:37;;;;;;;21.95;9.45;;;5.80;81.80;;;;;;5074896;28;20497;-71
2021/04/24 03:58:03;;;;;;;22.92;11.13;;;5.80;81.90;;;;;;5073710;28;20491;-71
2021/04/24 04:00:31;;;;;;;23.83;10.23;;;5.80;82.10;;;;;;5073460;28;20029;-71
2021/04/24 04:03:01;;;;;;;19.50;9.75;;;5.80;82.00;;;;;;5071855;28;20048;-71
2021/04/24 04:05:30;;;;;;;19.63;10.30;;;5.80;82.20;;;;;;5093170;28;20099;-71
2021/04/24 04:07:56;;;;;;;18.55;8.73;;;5.80;82.20;;;;;;5094629;28;20048;-70
2021/04/24 04:10:23;;;;;;;24.75;11.32;;;5.70;82.40;;;;;;5094635;28;20020;-71
2021/04/24 04:12:49;;;;;;;20.17;10.25;;;5.70;82.30;;;;;;5094981;28;20193;-71
2021/04/24 04:15:16;;;;;;;17.05;9.27;;;5.70;82.40;;;;;;5094482;28;20073;-71
2021/04/24 04:17:52;;;;;;;22.45;10.35;;;5.70;82.60;;;;;;5094822;28;20035;-71
2021/04/24 04:20:18;;;;;;;22.13;10.00;;;5.70;82.70;;;;;;5094601;28;20055;-71
2021/04/24 04:22:43;;;;;;;15.15;8.52;;;5.70;82.70;;;;;;5094495;28;20063;-71
2021/04/24 04:25:10;;;;;;;17.85;8.35;;;5.60;82.80;;;;;;5093355;28;20460;-72
2021/04/24 04:27:36;;;;;;;20.02;8.80;;;5.60;82.80;;;;;;5094788;28;20103;-71
2021/04/24 04:30:02;;;;;;;16.08;8.18;;;5.70;83.00;;;;;;5094729;28;20548;-71
2021/04/24 04:32:28;;;;;;;19.35;8.73;;;5.60;83.10;;;;;;5094067;28;20499;-71
2021/04/24 04:34:53;;;;;;;16.90;7.82;;;5.70;83.20;;;;;;5094137;28;20012;-70
2021/04/24 04:37:19;;;;;;;21.35;9.52;;;5.60;83.40;;;;;;5094084;28;20368;-71
2021/04/24 04:39:45;;;;;;;16.52;9.05;;;5.60;83.50;;;;;;5094068;28;20095;-71
2021/04/24 04:42:10;;;;;;;19.42;9.10;;;5.60;83.60;;;;;;5092815;28;20016;-71
2021/04/24 04:44:36;;;;;;;18.77;9.13;;;5.70;83.90;;;;;;5093897;28;20027;-71
2021/04/24 04:47:01;;;;;;;19.85;8.35;;;5.70;83.80;;;;;;5092847;28;20163;-71
2021/04/24 04:49:27;;;;;;;17.90;7.22;;;5.70;83.70;;;;;;5092753;28;20459;-71
2021/04/24 04:51:53;;;;;;;15.77;6.95;;;5.80;84.40;;;;;;5093918;28;20112;-71
2021/04/24 04:54:18;;;;;;;15.73;8.23;;;5.80;84.00;;;;;;5093959;28;20024;-71
2021/04/24 04:56:44;;;;;;;20.10;7.70;;;5.80;84.00;;;;;;5093672;28;20098;-71
2021/04/24 04:59:09;;;;;;;14.98;7.57;;;5.90;84.00;;;;;;5093865;28;20540;-72
2021/04/24 05:01:35;;;;;;;16.75;7.82;;;5.90;83.70;;;;;;5091619;28;20105;-70
2021/04/24 05:04:00;;;;;;;16.85;7.97;;;6.00;83.60;;;;;;5072446;28;20024;-73
2021/04/24 05:06:26;;;;;;;18.67;8.00;;;6.00;83.40;;;;;;5073849;28;20031;-72
2021/04/24 05:08:52;;;;;;;14.93;8.05;;;6.10;83.20;;;;;;5072003;28;20039;-72
2021/04/24 05:11:17;;;;;;;15.13;7.72;;;6.10;83.10;;;;;;5073549;28;20029;-72
2021/04/24 05:13:43;;;;;;;19.58;8.73;;;6.20;83.00;;;;;;5072331;28;20017;-70
2021/04/24 05:16:09;;;;;;;14.43;6.90;;;6.20;82.80;;;;;;5073438;28;20028;-72
2021/04/24 05:18:35;;;;;;;16.92;7.50;;;6.30;82.80;;;;;;5071567;28;20107;-72
2021/04/24 05:21:01;;;;;;;17.73;8.15;;;6.30;82.50;;;;;;5073307;28;20100;-72
2021/04/24 05:23:27;;;;;;;16.02;7.57;;;6.40;82.40;;;;;;5073049;28;20099;-73
2021/04/24 05:25:52;;;;;;;16.23;8.38;;;6.50;82.40;;;;;;5071930;28;20444;-73
2021/04/24 05:28:18;;;;;;;15.45;7.28;;;6.50;82.30;;;;;;5072800;28;20025;-73
2021/04/24 05:30:44;;;;;;;14.38;6.93;;;6.60;82.00;;;;;;5071923;28;20111;-73
2021/04/24 05:33:09;;;;;;;17.63;7.70;;;6.70;81.90;;;;;;5071912;28;20024;-73
2021/04/24 05:35:35;;;;;;;17.05;7.70;;;6.80;81.20;;;;;;5072993;28;20060;-73
2021/04/24 05:38:01;;;;;;;16.08;7.57;;;6.90;81.10;;;;;;5071890;28;20082;-73
2021/04/24 05:40:27;;;;;;;13.57;7.22;;;7.00;81.00;;;;;;5072678;28;20025;-73
2021/04/24 05:42:53;;;;;;;16.45;8.35;;;7.10;80.50;;;;;;5071733;28;20150;-72
2021/04/24 05:45:18;;;;;;;11.95;5.63;;;7.20;80.30;;;;;;5071348;28;20108;-73
2021/04/24 05:47:49;;;;;;;13.65;6.75;;;7.30;80.10;;;;;;5072490;28;20099;-73
2021/04/24 05:50:18;;;;;;;11.55;5.95;;;7.40;79.50;;;;;;5071229;28;20457;-73
2021/04/24 05:52:44;;;;;;;9.52;5.20;;;7.50;79.10;;;;;;5071165;28;20361;-72
2021/04/24 05:55:11;;;;;;;14.02;6.35;;;7.60;79.00;;;;;;5071421;28;20078;-73
2021/04/24 05:57:37;;;;;;;14.63;6.38;;;7.80;78.40;;;;;;5071017;28;20044;-72
2021/04/24 06:00:12;;;;;;;17.65;6.63;;;7.90;77.90;;;;;;5072700;28;20025;-72
2021/04/24 06:02:38;;;;;;;14.82;6.93;;;8.00;77.30;;;;;;5071231;28;20350;-73
2021/04/24 06:05:05;;;;;;;14.77;5.63;;;8.20;76.80;;;;;;5071216;28;20090;-72
2021/04/24 06:07:31;;;;;;;7.82;3.90;;;8.30;76.50;;;;;;5071951;28;20070;-73
2021/04/24 06:09:57;;;;;;;6.05;2.92;;;8.50;76.70;;;;;;5070531;28;20016;-71
2021/04/24 06:12:22;;;;;;;15.23;6.03;;;8.60;76.50;;;;;;5072088;28;20020;-72
2021/04/24 06:14:48;;;;;;;11.88;5.65;;;8.70;75.60;;;;;;5071240;28;20330;-72
2021/04/24 06:17:13;;;;;;;14.50;5.45;;;8.70;75.10;;;;;;5071227;28;20025;-73
2021/04/24 06:19:39;;;;;;;8.45;3.85;;;8.80;74.60;;;;;;5072297;28;20024;-73
2021/04/24 06:22:05;;;;;;;9.15;4.18;;;8.80;74.50;;;;;;5072266;28;20033;-72
2021/04/24 06:24:30;;;;;;;9.63;4.38;;;8.90;74.60;;;;;;5072013;28;20017;-73
2021/04/24 06:26:56;;;;;;;9.20;4.50;;;9.00;74.80;;;;;;5072946;28;20025;-72
2021/04/24 06:29:21;;;;;;;11.68;5.55;;;9.10;75.20;;;;;;5072913;28;20210;-72
2021/04/24 06:31:47;;;;;;;11.02;5.20;;;9.20;73.70;;;;;;5072773;28;20471;-72
2021/04/24 06:34:13;;;;;;;5.95;2.60;;;9.30;73.40;;;;;;5071012;28;20020;-73
2021/04/24 06:36:38;;;;;;;11.73;4.75;;;9.40;73.90;;;;;;5070374;28;20032;-73
2021/04/24 06:39:06;;;;;;;10.35;4.88;;;9.40;72.80;;;;;;5071794;28;20013;-73
2021/04/24 06:41:35;;;;;;;13.23;5.80;;;9.50;73.20;;;;;;5071694;28;20024;-73
2021/04/24 06:44:02;;;;;;;8.07;3.67;;;9.70;72.50;;;;;;5070689;28;20013;-72
2021/04/24 06:46:28;;;;;;;7.53;3.85;;;9.80;72.60;;;;;;5072058;28;20105;-73
2021/04/24 06:48:54;;;;;;;11.90;4.85;;;9.90;72.10;;;;;;5071995;28;20471;-72
2021/04/24 06:51:20;;;;;;;7.35;3.58;;;10.10;71.20;;;;;;5071658;28;20025;-72
2021/04/24 06:53:45;;;;;;;15.82;5.68;;;10.10;71.00;;;;;;5070618;28;20025;-73
2021/04/24 06:56:11;;;;;;;8.20;4.00;;;10.20;70.40;;;;;;5070600;28;20434;-73
2021/04/24 06:58:37;;;;;;;15.07;5.00;;;10.40;70.40;;;;;;5070365;28;20044;-73
2021/04/24 07:01:03;;;;;;;10.60;4.35;;;10.50;68.70;;;;;;5071457;28;20035;-73
2021/04/24 07:03:29;;;;;;;11.50;5.07;;;10.50;68.50;;;;;;5071181;28;20100;-72
2021/04/24 07:05:54;;;;;;;7.00;2.92;;;10.50;68.50;;;;;;5071451;28;20016;-73
2021/04/24 07:08:20;;;;;;;10.80;4.93;;;10.60;70.00;;;;;;5071090;28;20045;-72
2021/04/24 07:10:46;;;;;;;11.00;4.85;;;10.70;68.30;;;;;;5070503;28;20572;-72
2021/04/24 07:13:11;;;;;;;5.40;2.20;;;10.80;67.40;;;;;;5070306;28;20017;-72
2021/04/24 07:15:37;;;;;;;7.78;3.58;;;10.90;68.80;;;;;;5071515;28;20070;-72
2021/04/24 07:18:06;;;;;;;9.27;3.88;;;11.00;66.40;;;;;;5071563;28;20048;-72
2021/04/24 07:20:32;;;;;;;4.32;1.73;;;11.20;65.10;;;;;;5073585;28;20059;-72
2021/04/24 07:22:57;;;;;;;6.82;2.67;;;11.30;67.40;;;;;;5075527;28;20044;-72
2021/04/24 07:25:23;;;;;;;8.13;3.03;;;11.50;65.40;;;;;;5073859;28;20457;-72
2021/04/24 07:27:49;;;;;;;8.55;2.10;;;11.60;64.00;;;;;;5074478;28;20050;-72
2021/04/24 07:30:15;;;;;;;9.15;3.30;;;11.80;63.10;;;;;;5075615;28;20103;-72
2021/04/24 07:32:41;;;;;;;9.55;3.30;;;12.00;59.30;;;;;;5075290;28;20013;-73
2021/04/24 07:35:07;;;;;;;7.30;3.28;;;12.10;58.00;;;;;;5074146;28;20035;-72
2021/04/24 07:37:33;;;;;;;5.75;3.03;;;12.10;59.90;;;;;;5075414;28;20024;-73
2021/04/24 07:39:59;;;;;;;4.55;1.48;;;12.10;56.70;;;;;;5075141;28;20047;-73
2021/04/24 07:42:24;;;;;;;5.72;2.50;;;12.10;63.50;;;;;;5073604;28;20067;-74
2021/04/24 07:44:50;;;;;;;6.90;2.97;;;12.20;60.80;;;;;;5073674;28;20066;-74
2021/04/24 07:47:16;;;;;;;5.68;2.80;;;12.20;56.10;;;;;;5073367;28;20396;-73
2021/04/24 07:49:41;;;;;;;5.53;2.25;;;12.20;58.00;;;;;;5073345;28;20078;-74
2021/04/24 07:52:08;;;;;;;4.85;1.83;;;12.40;61.30;;;;;;5074986;28;20104;-74
2021/04/24 07:54:36;;;;;;;6.05;2.38;;;12.40;59.00;;;;;;5073656;28;20050;-74
2021/04/24 07:57:03;;;;;;;5.07;1.73;;;12.60;58.60;;;;;;5073781;28;20074;-73
2021/04/24 07:59:29;;;;;;;5.68;2.38;;;12.80;55.50;;;;;;5075022;28;20020;-74
2021/04/24 08:01:55;;;;;;;7.85;2.70;;;13.00;56.90;;;;;;5073568;28;20023;-74
2021/04/24 08:04:21;;;;;;;6.32;2.63;;;13.00;54.70;;;;;;5074935;28;20016;-73
2021/04/24 08:06:46;;;;;;;3.50;1.90;;;13.10;55.90;;;;;;5074302;28;20364;-73
2021/04/24 08:09:12;;;;;;;4.78;2.00;;;13.30;61.70;;;;;;5073044;28;20051;-74
2021/04/24 08:11:39;;;;;;;5.47;1.60;;;13.30;60.40;;;;;;5072934;28;20021;-74
2021/04/24 08:14:05;;;;;;;4.68;2.05;;;13.40;60.40;;;;;;5074335;28;20013;-74
2021/04/24 08:16:30;;;;;;;6.13;2.70;;;13.50;59.50;;;;;;5073263;28;20027;-74
2021/04/24 08:18:56;;;;;;;7.07;2.92;;;13.70;53.20;;;;;;5074420;28;20024;-74
2021/04/24 08:21:22;;;;;;;8.85;2.88;;;13.60;53.80;;;;;;5074211;28;20511;-74
2021/04/24 08:23:47;;;;;;;5.10;2.47;;;13.50;56.30;;;;;;5072832;28;20020;-74
2021/04/24 08:26:13;;;;;;;5.15;1.58;;;13.70;53.00;;;;;;5073318;28;20017;-74
2021/04/24 08:28:39;;;;;;;3.58;1.55;;;13.90;59.20;;;;;;5074270;28;20023;-74
2021/04/24 08:31:05;;;;;;;4.47;1.73;;;14.10;61.30;;;;;;5073685;28;20020;-74
2021/04/24 08:33:32;;;;;;;5.80;3.05;;;14.20;61.00;;;;;;5072944;28;20360;-74
2021/04/24 08:35:58;;;;;;;9.77;3.17;;;14.20;55.60;;;;;;5072833;28;20016;-74
2021/04/24 08:38:23;;;;;;;7.30;3.17;;;14.30;48.80;;;;;;5074019;28;20411;-74
2021/04/24 08:40:50;;;;;;;7.07;2.55;;;14.50;53.00;;;;;;5072835;28;20020;-74
2021/04/24 08:43:16;;;;;;;5.82;3.03;;;14.60;50.80;;;;;;5073936;28;20016;-73
2021/04/24 08:45:43;;;;;;;4.07;1.90;;;14.70;47.60;;;;;;5072516;28;20452;-73
2021/04/24 08:48:09;;;;;;;5.18;1.73;;;14.70;53.90;;;;;;5074066;28;20051;-74
2021/04/24 08:50:35;;;;;;;5.13;1.58;;;14.90;58.80;;;;;;5072547;28;20028;-74
2021/04/24 08:53:02;;;;;;;4.20;1.67;;;15.00;59.40;;;;;;5072673;28;20016;-74
2021/04/24 08:55:34;;;;;;;4.38;1.92;;;15.10;59.80;;;;;;5074148;28;20137;-74
2021/04/24 08:58:01;;;;;;;3.25;1.73;;;15.10;58.10;;;;;;5072635;28;20449;-74
2021/04/24 09:00:30;;;;;;;5.90;1.45;;;15.20;59.00;;;;;;5072053;28;20020;-74
2021/04/24 09:02:56;;;;;;;4.55;1.33;;;15.20;59.90;;;;;;5072171;28;20023;-74
2021/04/24 09:05:23;;;;;;;4.13;1.85;;;15.40;59.00;;;;;;5072191;28;20013;-74
2021/04/24 09:08:01;;;;;;;4.35;1.63;;;15.50;58.10;;;;;;5073063;28;20481;-74
2021/04/24 09:10:27;;;;;;;5.03;2.47;;;15.50;58.80;;;;;;5073108;28;20020;-74
2021/04/24 09:12:53;;;;;;;2.88;1.35;;;15.70;56.20;;;;;;5073233;28;20028;-74
2021/04/24 09:15:24;;;;;;;3.97;2.28;;;15.80;59.50;;;;;;5072095;28;20024;-74
2021/04/24 09:18:16;;;;;;;3.47;2.28;;;15.90;58.90;;;;;;5073006;28;20099;-73
2021/04/24 09:20:52;;;;;;;2.78;1.45;;;16.10;57.60;;;;;;5073101;28;20024;-73
2021/04/24 09:23:32;;;;;;;4.45;1.83;;;16.20;58.20;;;;;;5073450;28;20490;-73
2021/04/24 09:26:02;;;;;;;6.18;2.28;;;16.20;56.80;;;;;;5073475;28;20016;-74
2021/04/24 09:28:35;;;;;;;7.28;2.50;;;16.10;54.40;;;;;;5073044;28;20024;-74
2021/04/24 09:31:13;;;;;;;3.22;1.15;;;15.90;51.50;;;;;;5071631;28;20016;-73
2021/04/24 09:33:39;;;;;;;3.20;1.20;;;15.90;56.00;;;;;;5073029;28;20012;-73
2021/04/24 09:36:09;;;;;;;4.70;2.58;;;16.00;57.10;;;;;;5073460;28;20028;-74
2021/04/24 09:38:46;;;;;;;5.10;2.45;;;16.20;50.10;;;;;;5072907;28;20058;-74
2021/04/24 09:41:19;;;;;;;5.65;2.67;;;16.30;52.10;;;;;;5072994;28;20028;-73
2021/04/24 09:43:57;;;;;;;7.65;3.25;;;16.30;43.20;;;;;;5072856;28;20023;-73
2021/04/24 09:46:25;;;;;;;3.38;1.50;;;16.40;46.30;;;;;;5072989;28;20023;-72
2021/04/24 09:49:07;;;;;;;5.43;1.85;;;16.40;57.30;;;;;;5071533;28;20030;-73
2021/04/24 09:51:39;;;;;;;4.93;2.35;;;16.60;56.20;;;;;;5072942;28;20027;-74
2021/04/24 09:54:06;;;;;;;5.32;2.28;;;16.70;56.30;;;;;;5071830;28;20070;-74
2021/04/24 09:56:31;;;;;;;5.72;2.63;;;17.00;56.50;;;;;;5068831;28;20448;-74
2021/04/24 09:59:03;;;;;;;4.72;2.47;;;17.30;46.40;;;;;;5068390;28;20078;-73
2021/04/24 10:01:33;;;;;;;3.70;1.50;;;17.50;50.80;;;;;;5074590;28;20024;-74
2021/04/24 10:04:00;;;;;;;;;;;17.70;51.20;;;;;;5071584;28;20032;-74
2021/04/24 10:06:27;;;;;;;4.85;2.20;;;18.00;43.00;;;;;;5071157;28;19901;-74
2021/04/24 10:09:16;;;;;;;4.43;1.98;;;18.00;51.10;;;;;;5070509;28;20045;-74
2021/04/24 10:11:46;;;;;;;5.60;2.05;;;18.00;53.40;;;;;;5071794;28;20381;-74
2021/04/24 10:14:12;;;;;;;7.70;1.95;;;17.90;45.40;;;;;;5071805;28;20060;-73
2021/04/24 10:16:43;;;;;;;3.63;1.60;;;18.00;53.50;;;;;;5072055;28;20063;-74
2021/04/24 10:19:16;;;;;;;8.98;2.72;;;18.10;54.90;;;;;;5072281;28;20112;-73
2021/04/24 10:21:43;;;;;;;6.20;2.72;;;18.00;41.90;;;;;;5070611;28;20028;-74
2021/04/24 10:24:10;;;;;;;6.32;2.10;;;18.10;42.40;;;;;;5072181;28;20047;-73
2021/04/24 10:26:37;;;;;;;3.75;1.38;;;18.10;53.80;;;;;;5070681;28;20017;-74
2021/04/24 10:29:05;;;;;;;4.22;1.60;;;18.00;54.60;;;;;;5072150;28;20013;-74
2021/04/24 10:31:31;;;;;;;4.00;1.77;;;18.10;52.10;;;;;;5071954;28;20100;-74
2021/04/24 10:34:04;;;;;;;2.63;1.10;;;18.00;56.10;;;;;;5071958;28;20041;-73
2021/04/24 10:36:32;;;;;;;6.10;1.92;;;18.10;57.30;;;;;;5070637;28;20415;-73
2021/04/24 10:38:59;;;;;;;6.88;1.77;;;18.20;55.90;;;;;;5071129;28;20278;-72
2021/04/24 10:41:29;;;;;;;2.95;1.15;;;18.30;56.20;;;;;;5071782;28;20020;-73
2021/04/24 10:44:03;;;;;;;2.75;1.17;;;18.40;53.40;;;;;;5071603;28;20065;-73
2021/04/24 10:46:32;;;;;;;3.28;1.25;;;18.60;55.30;;;;;;5072027;28;20540;-72
2021/04/24 10:49:19;;;;;;;3.85;2.00;;;18.70;56.30;;;;;;5070700;28;20017;-71
2021/04/24 10:52:17;;;;;;;2.67;1.00;;;18.90;46.30;;;;;;5071673;28;20020;-73
2021/04/24 10:54:43;;;;;;;5.57;1.42;;;19.00;55.70;;;;;;5072706;28;20479;-73
2021/04/24 10:57:46;;;;;;;5.35;2.55;;;19.10;51.60;;;;;;5075994;28;20096;-72
2021/04/24 11:00:18;;;;;;;3.42;1.67;;;19.20;41.60;;;;;;5075479;28;20098;-73
2021/04/24 11:02:47;;;;;;;2.72;1.17;;;19.40;50.90;;;;;;5075386;28;20016;-72
2021/04/24 11:05:34;;;;;;;2.42;1.15;;;19.30;54.10;;;;;;5075690;28;20012;-73
2021/04/24 11:08:11;;;;;;;1.58;1.10;;;19.20;55.30;;;;;;5076180;28;20078;-72
2021/04/24 11:10:43;;;;;;;5.30;2.40;;;19.10;55.70;;;;;;5076066;28;20024;-72
2021/04/24 11:13:11;;;;;;;2.45;1.35;;;18.90;50.60;;;;;;5075908;28;20185;-71
2021/04/24 11:15:39;;;;;;;6.45;2.97;;;18.60;56.60;;;;;;5075367;28;20020;-71
2021/04/24 11:18:08;;;;;;;4.40;1.95;;;18.50;44.30;;;;;;5074038;28;20028;-72
2021/04/24 11:20:52;;;;;;;4.72;1.35;;;18.40;57.00;;;;;;5075742;28;20025;-71
2021/04/24 11:23:29;;;;;;;6.10;1.75;;;18.20;58.30;;;;;;5075671;28;20476;-72
2021/04/24 11:25:56;;;;;;;5.00;2.33;;;17.90;58.40;;;;;;5075111;28;20369;-73
2021/04/24 11:28:22;;;;;;;5.75;1.92;;;17.70;55.40;;;;;;5075285;28;20013;-73
2021/04/24 11:30:53;;;;;;;3.40;1.88;;;17.60;56.50;;;;;;5075209;28;20522;-72
2021/04/24 11:33:48;;;;;;;4.60;1.92;;;17.60;56.30;;;;;;5074192;28;20456;-72
2021/04/24 11:36:26;;;;;;;4.35;1.70;;;17.70;58.30;;;;;;5075487;28;20273;-73
2021/04/24 11:38:55;;;;;;;7.68;3.25;;;17.90;58.10;;;;;;5075173;28;20013;-74
2021/04/24 11:41:43;;;;;;;6.00;3.10;;;17.80;45.90;;;;;;5073840;28;20047;-74
2021/04/24 11:44:18;;;;;;;4.32;2.22;;;17.80;52.70;;;;;;5074962;28;20095;-73
2021/04/24 11:46:49;;;;;;;3.03;1.63;;;17.80;56.60;;;;;;5074809;28;20025;-74
2021/04/24 11:49:16;;;;;;;4.30;2.50;;;17.70;57.70;;;;;;5073804;28;20027;-74
2021/04/24 11:51:43;;;;;;;6.80;2.47;;;17.70;55.00;;;;;;5073441;28;20078;-74
2021/04/24 11:54:33;;;;;;;6.43;2.83;;;17.60;49.90;;;;;;5073732;28;20463;-74
2021/04/24 11:57:01;;;;;;;4.35;1.98;;;17.70;50.70;;;;;;5065483;28;20037;-73
2021/04/24 11:59:30;;;;;;;3.65;1.85;;;17.70;57.50;;;;;;5074895;28;20065;-74
2021/04/24 12:02:04;;;;;;;5.43;2.33;;;17.70;56.00;;;;;;5074611;28;20028;-74
2021/04/24 12:04:35;;;;;;;6.13;3.33;;;17.70;55.90;;;;;;5074589;28;20453;-74
2021/04/24 12:07:09;;;;;;;8.05;3.50;;;17.60;50.40;;;;;;5072152;28;20035;-74
2021/04/24 12:10:00;;;;;;;6.20;2.65;;;17.50;52.00;;;;;;5073031;28;20048;-72
2021/04/24 12:12:37;;;;;;;2.78;1.35;;;17.50;57.40;;;;;;5074738;28;20024;-73
2021/04/24 12:15:24;;;;;;;8.63;4.18;;;17.50;58.70;;;;;;5073367;28;20047;-73
2021/04/24 12:17:56;;;;;;;5.70;2.78;;;17.30;50.90;;;;;;5074548;28;20094;-73
2021/04/24 12:20:24;;;;;;;6.40;2.67;;;17.30;54.20;;;;;;5072896;28;20024;-73
2021/04/24 12:22:51;;;;;;;8.00;3.88;;;17.30;54.20;;;;;;5074330;28;20020;-73
2021/04/24 12:25:18;;;;;;;4.25;1.95;;;17.20;52.50;;;;;;5074769;28;20041;-72
2021/04/24 12:27:48;;;;;;;7.60;3.10;;;17.10;58.80;;;;;;5072781;28;20027;-73
2021/04/24 12:30:23;;;;;;;6.27;1.77;;;17.10;57.60;;;;;;5074309;28;20021;-72
2021/04/24 12:32:53;;;;;;;4.00;1.58;;;17.10;59.70;;;;;;5084981;28;20278;-72
2021/04/24 12:35:27;;;;;;;5.38;2.50;;;17.10;60.00;;;;;;5094933;28;20012;-72
2021/04/24 12:38:03;;;;;;;8.38;4.07;;;17.10;59.00;;;;;;5092382;28;20055;-73
2021/04/24 12:40:31;;;;;;;6.28;2.95;;;17.00;54.00;;;;;;5092795;28;20470;-73
2021/04/24 12:43:08;;;;;;;12.38;4.68;;;16.90;55.00;;;;;;5092692;28;20086;-72
2021/04/24 12:45:37;;;;;;;7.97;4.13;;;16.90;47.80;;;;;;5093957;28;20023;-72
2021/04/24 12:48:04;;;;;;;5.28;2.40;;;16.80;47.70;;;;;;5093833;28;20024;-71
2021/04/24 12:50:37;;;;;;;5.25;2.15;;;16.70;56.70;;;;;;5093934;28;20016;-72